createdAt,value
2023-05-04T00:00:51.048Z,7.40
2023-05-04T00:03:37.508Z,7.30
2023-05-04T00:06:05.208Z,7.20
2023-05-04T00:08:32.598Z,7.20
2023-05-04T00:11:18.792Z,7.20
2023-05-04T00:13:45.884Z,7.10
2023-05-04T00:16:31.636Z,7.10
2023-05-04T00:19:36.230Z,7.00
2023-05-04T00:22:03.549Z,7.10
2023-05-04T00:24:30.799Z,7.00
2023-05-04T00:27:16.567Z,6.90
2023-05-04T00:29:43.799Z,7.00
2023-05-04T00:32:11.056Z,6.90
2023-05-04T00:34:38.325Z,6.80
2023-05-04T00:37:06.470Z,6.80
2023-05-04T00:39:35.336Z,6.80
2023-05-04T00:42:03.456Z,6.80
2023-05-04T00:44:30.637Z,6.80
2023-05-04T00:46:58.282Z,6.70
2023-05-04T00:49:26.667Z,6.70
2023-05-04T00:52:14.741Z,6.60
2023-05-04T00:54:43.430Z,6.60
2023-05-04T00:57:10.701Z,6.70
2023-05-04T00:59:38.030Z,6.50
2023-05-04T01:02:05.516Z,6.40
2023-05-04T01:04:32.589Z,6.50
2023-05-04T01:07:05.899Z,6.50
2023-05-04T01:09:50.966Z,6.50
2023-05-04T01:12:30.719Z,6.40
2023-05-04T01:14:59.090Z,6.40
2023-05-04T01:17:26.650Z,6.40
2023-05-04T01:19:54.318Z,6.30
2023-05-04T01:22:22.242Z,6.40
2023-05-04T01:24:51.114Z,6.40
2023-05-04T01:27:37.884Z,6.30
2023-05-04T01:30:33.450Z,6.20
2023-05-04T01:33:02.280Z,6.30
2023-05-04T01:35:30.131Z,6.20
2023-05-04T01:37:58.995Z,6.30
2023-05-04T01:40:26.124Z,6.20
2023-05-04T01:42:53.335Z,6.30
2023-05-04T01:45:20.568Z,6.30
2023-05-04T01:47:49.201Z,6.30
2023-05-04T01:50:16.299Z,6.40
2023-05-04T01:52:43.431Z,6.40
2023-05-04T01:55:10.727Z,6.40
2023-05-04T01:57:37.847Z,6.40
2023-05-04T02:00:05.805Z,6.40
2023-05-04T02:02:33.871Z,6.40
2023-05-04T02:05:01.020Z,6.50
2023-05-04T02:07:28.217Z,6.40
2023-05-04T02:09:55.275Z,6.50
2023-05-04T02:12:22.451Z,6.50
2023-05-04T02:14:49.581Z,6.60
2023-05-04T02:17:16.670Z,6.60
2023-05-04T02:19:43.743Z,6.70
2023-05-04T02:22:10.934Z,6.70
2023-05-04T02:24:40.456Z,6.70
2023-05-04T02:27:07.628Z,6.70
2023-05-04T02:29:34.922Z,6.80
2023-05-04T02:32:02.555Z,6.80
2023-05-04T02:34:30.160Z,6.80
2023-05-04T02:36:57.245Z,6.90
2023-05-04T02:39:24.319Z,7.00
2023-05-04T02:41:51.509Z,7.00
2023-05-04T02:44:18.600Z,7.00
2023-05-04T02:46:45.772Z,7.00
2023-05-04T02:49:12.895Z,7.00
2023-05-04T02:51:41.618Z,7.10
2023-05-04T02:54:08.921Z,7.00
2023-05-04T02:56:38.508Z,7.20
2023-05-04T02:59:05.540Z,7.10
2023-05-04T03:01:34.740Z,7.20
2023-05-04T03:04:02.234Z,7.20
2023-05-04T03:06:29.349Z,7.20
2023-05-04T03:08:56.699Z,7.20
2023-05-04T03:11:24.033Z,7.40
2023-05-04T03:13:51.499Z,7.40
2023-05-04T03:16:19.196Z,7.50
2023-05-04T03:18:46.556Z,7.60
2023-05-04T03:21:13.760Z,7.60
2023-05-04T03:23:41.186Z,7.50
2023-05-04T03:26:08.543Z,7.50
2023-05-04T03:28:35.741Z,7.70
2023-05-04T03:31:03.323Z,7.80
2023-05-04T03:33:30.442Z,7.70
2023-05-04T03:35:57.496Z,7.70
2023-05-04T03:38:24.729Z,7.90
2023-05-04T03:40:52.261Z,8.00
2023-05-04T03:43:19.336Z,8.10
2023-05-04T03:45:46.758Z,8.00
2023-05-04T03:48:14.344Z,8.10
2023-05-04T03:50:41.467Z,8.10
2023-05-04T03:53:08.706Z,8.40
2023-05-04T03:55:36.150Z,8.40
2023-05-04T03:58:03.729Z,8.60
2023-05-04T04:00:30.818Z,8.50
2023-05-04T04:02:58.061Z,8.60
2023-05-04T04:05:25.448Z,8.70
2023-05-04T04:07:52.631Z,9.00
2023-05-04T04:10:19.924Z,9.00
2023-05-04T04:12:48.115Z,8.90
2023-05-04T04:15:15.228Z,9.20
2023-05-04T04:17:42.344Z,9.20
2023-05-04T04:20:10.115Z,9.30
2023-05-04T04:22:37.363Z,9.40
2023-05-04T04:25:05.103Z,9.30
2023-05-04T04:27:32.721Z,9.20
2023-05-04T04:30:00.020Z,9.40
2023-05-04T04:32:27.284Z,9.50
2023-05-04T04:34:54.493Z,9.70
2023-05-04T04:37:21.862Z,10.00
2023-05-04T04:39:49.068Z,9.90
2023-05-04T04:42:16.463Z,9.90
2023-05-04T04:44:45.735Z,9.90
2023-05-04T04:47:13.254Z,10.20
2023-05-04T04:49:40.421Z,10.20
2023-05-04T04:52:07.529Z,10.00
2023-05-04T04:54:34.595Z,10.00
2023-05-04T04:57:02.517Z,10.30
2023-05-04T04:59:30.180Z,10.20
2023-05-04T05:01:57.915Z,10.50
2023-05-04T05:04:25.368Z,10.70
2023-05-04T05:06:54.265Z,10.90
2023-05-04T05:09:21.655Z,10.70
2023-05-04T05:11:48.868Z,10.30
2023-05-04T05:14:16.075Z,10.20
2023-05-04T05:16:43.141Z,10.40
2023-05-04T05:19:10.234Z,10.60
2023-05-04T05:21:57.173Z,10.60
2023-05-04T05:24:24.384Z,10.40
2023-05-04T05:26:53.057Z,10.40
2023-05-04T05:29:20.181Z,10.90
2023-05-04T05:31:47.428Z,11.20
2023-05-04T05:34:14.601Z,11.60
2023-05-04T05:36:41.762Z,11.20
2023-05-04T05:39:08.886Z,11.50
2023-05-04T05:41:36.378Z,11.60
2023-05-04T05:44:03.573Z,11.40
2023-05-04T05:46:30.864Z,11.40
2023-05-04T05:48:57.918Z,11.70
2023-05-04T05:51:25.036Z,12.00
2023-05-04T05:53:52.421Z,12.00
2023-05-04T05:56:19.554Z,11.40
2023-05-04T05:58:46.826Z,11.00
2023-05-04T06:01:14.767Z,11.40
2023-05-04T06:03:42.161Z,11.80
2023-05-04T06:06:09.668Z,12.30
2023-05-04T06:08:36.820Z,12.20
2023-05-04T06:11:03.973Z,12.60
2023-05-04T06:13:49.859Z,12.70
2023-05-04T06:16:17.086Z,12.20
2023-05-04T06:18:44.235Z,12.30
2023-05-04T06:21:11.515Z,12.90
2023-05-04T06:23:38.639Z,13.30
2023-05-04T06:26:06.206Z,13.50
2023-05-04T06:28:33.681Z,13.80
2023-05-04T06:31:01.633Z,13.30
2023-05-04T06:33:29.161Z,12.60
2023-05-04T06:35:56.407Z,12.70
2023-05-04T06:38:23.687Z,12.80
2023-05-04T06:40:50.934Z,13.40
2023-05-04T06:43:18.173Z,13.10
2023-05-04T06:45:45.446Z,14.00
2023-05-04T06:48:12.611Z,13.70
2023-05-04T06:50:40.088Z,13.50
2023-05-04T06:53:09.629Z,14.40
2023-05-04T06:55:37.338Z,14.50
2023-05-04T06:58:04.732Z,14.40
2023-05-04T07:00:32.236Z,14.60
2023-05-04T07:02:59.517Z,14.00
2023-05-04T07:05:26.893Z,13.90
2023-05-04T07:07:54.077Z,13.60
2023-05-04T07:10:21.248Z,13.30
2023-05-04T07:12:48.996Z,12.60
2023-05-04T07:15:16.102Z,13.60
2023-05-04T07:17:43.375Z,14.20
2023-05-04T07:20:11.372Z,14.30
2023-05-04T07:22:38.576Z,14.00
2023-05-04T07:25:06.341Z,13.90
2023-05-04T07:27:35.180Z,14.80
2023-05-04T07:30:03.684Z,15.20
2023-05-04T07:32:33.405Z,14.90
2023-05-04T07:35:00.526Z,14.20
2023-05-04T07:37:27.718Z,13.70
2023-05-04T07:39:54.939Z,14.30
2023-05-04T07:42:23.698Z,13.30
2023-05-04T07:44:52.284Z,14.20
2023-05-04T07:47:19.899Z,15.70
2023-05-04T07:49:47.104Z,16.30
2023-05-04T07:52:14.302Z,15.30
2023-05-04T07:54:41.529Z,15.10
2023-05-04T07:57:08.708Z,16.10
2023-05-04T07:59:35.855Z,16.00
2023-05-04T08:02:03.242Z,15.90
2023-05-04T08:04:30.501Z,15.80
2023-05-04T08:06:57.652Z,16.30
2023-05-04T08:09:24.744Z,17.30
2023-05-04T08:11:52.731Z,15.30
2023-05-04T08:14:20.136Z,14.10
2023-05-04T08:16:47.871Z,13.90
2023-05-04T08:19:15.346Z,14.70
2023-05-04T08:21:42.498Z,15.10
2023-05-04T08:24:09.821Z,13.90
2023-05-04T08:26:39.924Z,13.70
2023-05-04T08:29:10.500Z,14.10
2023-05-04T08:31:38.270Z,14.80
2023-05-04T08:34:05.804Z,16.30
2023-05-04T08:36:32.924Z,15.20
2023-05-04T08:39:00.260Z,15.30
2023-05-04T08:41:27.378Z,14.20
2023-05-04T08:43:54.886Z,13.50
2023-05-04T08:46:23.124Z,14.60
2023-05-04T08:48:50.669Z,15.60
2023-05-04T08:51:19.425Z,17.00
2023-05-04T08:53:48.613Z,17.80
2023-05-04T08:56:16.927Z,17.10
2023-05-04T08:58:51.844Z,15.90
2023-05-04T09:01:20.344Z,15.50
2023-05-04T09:03:49.261Z,17.90
2023-05-04T09:06:16.867Z,21.20
2023-05-04T09:08:44.087Z,21.70
2023-05-04T09:11:11.274Z,21.60
2023-05-04T09:13:38.925Z,19.20
2023-05-04T09:16:07.790Z,17.50
2023-05-04T09:18:39.274Z,19.70
2023-05-04T09:21:07.243Z,20.80
2023-05-04T09:23:45.478Z,19.60
2023-05-04T09:26:12.912Z,19.80
2023-05-04T09:28:40.146Z,16.00
2023-05-04T09:31:08.161Z,15.30
2023-05-04T09:33:35.693Z,15.50
2023-05-04T09:36:17.706Z,15.00
2023-05-04T09:38:45.335Z,14.80
2023-05-04T09:41:12.772Z,15.00
2023-05-04T09:43:40.558Z,16.30
2023-05-04T09:46:15.254Z,16.20
2023-05-04T09:48:51.876Z,18.80
2023-05-04T09:51:22.568Z,20.70
2023-05-04T09:53:51.040Z,22.10
2023-05-04T09:56:41.375Z,23.20
2023-05-04T09:59:10.176Z,20.00
2023-05-04T10:01:37.777Z,19.90
2023-05-04T10:04:06.297Z,21.40
2023-05-04T10:06:34.201Z,22.60
2023-05-04T10:09:02.145Z,19.60
2023-05-04T10:11:30.623Z,21.30
2023-05-04T10:13:57.970Z,24.60
2023-05-04T10:16:38.997Z,22.90
2023-05-04T10:19:24.202Z,20.40
2023-05-04T10:22:12.447Z,22.90
2023-05-04T10:24:55.060Z,24.20
2023-05-04T10:27:51.403Z,21.80
2023-05-04T10:30:19.372Z,25.20
2023-05-04T10:32:46.691Z,23.60
2023-05-04T10:35:16.885Z,23.70
2023-05-04T10:37:57.471Z,22.40
2023-05-04T10:40:39.324Z,22.30
2023-05-04T10:43:08.812Z,22.50
2023-05-04T10:45:44.067Z,22.50
2023-05-04T10:48:11.315Z,21.60
2023-05-04T10:50:43.676Z,22.70
2023-05-04T10:53:12.117Z,23.90
2023-05-04T10:55:41.974Z,24.40
2023-05-04T10:58:11.039Z,24.70
2023-05-04T11:00:43.177Z,22.80
2023-05-04T11:03:12.260Z,21.60
2023-05-04T11:05:51.748Z,19.80
2023-05-04T11:08:20.961Z,20.40
2023-05-04T11:10:59.851Z,21.80
2023-05-04T11:13:27.763Z,22.90
2023-05-04T11:15:54.890Z,21.10
2023-05-04T11:18:31.133Z,22.30
2023-05-04T11:20:58.825Z,22.10
2023-05-04T11:23:26.752Z,20.80
2023-05-04T11:25:54.956Z,22.40
2023-05-04T11:28:35.161Z,23.80
2023-05-04T11:31:15.602Z,21.70
2023-05-04T11:33:54.779Z,18.60
2023-05-04T11:36:23.099Z,19.60
2023-05-04T11:38:51.436Z,21.60
2023-05-04T11:41:18.752Z,21.30
2023-05-04T11:43:47.042Z,21.50
2023-05-04T11:46:16.676Z,20.10
2023-05-04T11:48:44.488Z,19.40
2023-05-04T11:51:11.699Z,18.90
2023-05-04T11:53:39.783Z,17.80
2023-05-04T11:56:10.833Z,19.40
2023-05-04T11:58:38.158Z,20.70
2023-05-04T12:01:06.039Z,22.80
2023-05-04T12:06:05.964Z,21.20
2023-05-04T12:08:35.531Z,20.90
2023-05-04T12:11:26.387Z,21.00
2023-05-04T12:14:17.319Z,17.60
2023-05-04T12:16:55.255Z,17.90
2023-05-04T12:19:23.725Z,18.80
2023-05-04T12:21:53.318Z,20.00
2023-05-04T12:24:25.208Z,18.50
2023-05-04T12:26:52.450Z,16.40
2023-05-04T12:29:19.567Z,18.00
2023-05-04T12:31:46.907Z,18.90
2023-05-04T12:34:14.230Z,19.90
2023-05-04T12:36:41.419Z,19.60
2023-05-04T12:39:08.946Z,19.40
2023-05-04T12:41:36.164Z,22.00
2023-05-04T12:44:03.400Z,22.40
2023-05-04T12:46:30.702Z,21.30
2023-05-04T12:48:58.019Z,18.50
2023-05-04T12:51:25.225Z,18.10
2023-05-04T12:53:52.424Z,16.90
2023-05-04T12:56:19.678Z,16.80
2023-05-04T12:58:46.932Z,16.20
2023-05-04T13:01:14.123Z,16.30
2023-05-04T13:03:41.404Z,16.60
2023-05-04T13:06:09.167Z,16.80
2023-05-04T13:08:36.290Z,17.00
2023-05-04T13:11:03.486Z,18.60
2023-05-04T13:13:31.060Z,18.00
2023-05-04T13:15:58.373Z,17.40
2023-05-04T13:18:27.526Z,17.50
2023-05-04T13:20:56.178Z,17.00
2023-05-04T13:23:23.896Z,16.10
2023-05-04T13:25:51.834Z,16.40
2023-05-04T13:28:19.374Z,16.00
2023-05-04T13:30:46.626Z,16.10
2023-05-04T13:33:27.878Z,15.70
2023-05-04T13:35:58.136Z,16.20
2023-05-04T13:38:25.745Z,16.60
2023-05-04T13:40:52.948Z,16.20
2023-05-04T13:43:21.165Z,17.10
2023-05-04T13:45:48.676Z,16.10
2023-05-04T13:48:15.910Z,16.00
2023-05-04T13:50:43.263Z,17.40
2023-05-04T13:53:13.643Z,18.20
2023-05-04T13:55:41.049Z,16.30
2023-05-04T13:58:08.357Z,16.60
2023-05-04T14:00:35.517Z,17.20
2023-05-04T14:03:02.990Z,16.80
2023-05-04T14:05:30.679Z,16.10
2023-05-04T14:07:57.925Z,16.20
2023-05-04T14:10:25.256Z,16.60
2023-05-04T14:12:52.563Z,17.40
2023-05-04T14:15:22.822Z,17.60
2023-05-04T14:17:50.762Z,17.20
2023-05-04T14:20:18.363Z,16.10
2023-05-04T14:22:45.861Z,15.20
2023-05-04T14:25:13.478Z,15.30
2023-05-04T14:27:42.150Z,15.30
2023-05-04T14:30:10.208Z,15.30
2023-05-04T14:32:37.430Z,15.20
2023-05-04T14:35:08.694Z,15.30
2023-05-04T14:37:38.196Z,15.70
2023-05-04T14:40:11.055Z,15.60
2023-05-04T14:42:38.684Z,15.70
2023-05-04T14:45:07.422Z,15.50
2023-05-04T14:47:35.371Z,15.50
2023-05-04T14:50:02.744Z,15.60
2023-05-04T14:52:32.418Z,16.40
2023-05-04T14:54:59.578Z,16.40
2023-05-04T14:57:26.975Z,15.70
2023-05-04T14:59:54.174Z,15.20
2023-05-04T15:02:21.426Z,15.00
2023-05-04T15:04:48.953Z,15.00
2023-05-04T15:07:18.303Z,14.80
2023-05-04T15:09:45.786Z,14.90
2023-05-04T15:12:13.483Z,14.90
2023-05-04T15:14:40.577Z,14.80
2023-05-04T15:17:07.820Z,14.80
2023-05-04T15:19:39.040Z,14.90
2023-05-04T15:22:06.860Z,15.10
2023-05-04T15:24:34.011Z,14.80
2023-05-04T15:27:02.264Z,14.60
2023-05-04T15:29:29.614Z,14.60
2023-05-04T15:31:56.993Z,14.70
2023-05-04T15:34:24.283Z,14.90
2023-05-04T15:36:52.179Z,14.90
2023-05-04T15:39:19.333Z,14.80
2023-05-04T15:41:46.569Z,15.00
2023-05-04T15:44:13.736Z,15.00
2023-05-04T15:46:41.182Z,15.10
2023-05-04T15:49:08.795Z,15.20
2023-05-04T15:51:36.183Z,15.00
2023-05-04T15:54:03.998Z,14.80
2023-05-04T15:56:31.254Z,14.60
2023-05-04T15:58:59.362Z,14.30
2023-05-04T16:01:26.964Z,14.30
2023-05-04T16:03:59.642Z,14.30
2023-05-04T16:06:27.386Z,14.40
2023-05-04T16:08:55.075Z,14.40
2023-05-04T16:11:22.186Z,14.10
2023-05-04T16:13:49.332Z,14.30
2023-05-04T16:16:16.510Z,14.20
2023-05-04T16:18:43.782Z,14.20
2023-05-04T16:21:12.513Z,14.40
2023-05-04T16:23:40.424Z,14.10
2023-05-04T16:26:07.683Z,14.40
2023-05-04T16:28:35.192Z,14.20
2023-05-04T16:31:05.395Z,14.20
2023-05-04T16:33:32.931Z,14.30
2023-05-04T16:36:00.184Z,14.40
2023-05-04T16:38:27.756Z,14.30
2023-05-04T16:40:57.572Z,14.40
2023-05-04T16:43:24.913Z,14.70
2023-05-04T16:45:53.125Z,14.60
2023-05-04T16:48:20.289Z,14.40
2023-05-04T16:50:47.513Z,14.20
2023-05-04T16:53:14.840Z,14.40
2023-05-04T16:55:42.011Z,14.30
2023-05-04T16:58:09.394Z,14.20
2023-05-04T17:00:36.593Z,14.20
2023-05-04T17:03:04.072Z,14.10
2023-05-04T17:05:31.348Z,14.20
2023-05-04T17:07:58.496Z,14.00
2023-05-04T17:10:25.921Z,14.10
2023-05-04T17:12:54.827Z,14.00
2023-05-04T17:15:22.227Z,13.80
2023-05-04T17:17:49.489Z,13.90
2023-05-04T17:20:16.851Z,13.90
2023-05-04T17:22:44.476Z,13.90
2023-05-04T17:25:12.637Z,13.90
2023-05-04T17:27:40.941Z,13.70
2023-05-04T17:30:09.241Z,13.70
2023-05-04T17:32:37.592Z,13.70
2023-05-04T17:35:16.027Z,13.60
2023-05-04T17:37:51.378Z,13.60
2023-05-04T17:40:18.566Z,13.60
2023-05-04T17:42:47.338Z,13.50
2023-05-04T17:45:14.623Z,13.50
2023-05-04T17:47:43.997Z,13.50
2023-05-04T17:50:11.337Z,13.50
2023-05-04T17:52:38.611Z,13.30
2023-05-04T17:55:06.212Z,13.30
2023-05-04T17:57:34.016Z,13.30
2023-05-04T18:00:01.203Z,13.20
2023-05-04T18:02:31.368Z,13.30
2023-05-04T18:04:58.598Z,13.20
2023-05-04T18:07:25.858Z,13.30
2023-05-04T18:09:52.966Z,13.30
2023-05-04T18:12:20.227Z,13.10
2023-05-04T18:14:47.451Z,13.20
2023-05-04T18:17:14.623Z,13.20
2023-05-04T18:19:41.849Z,13.10
2023-05-04T18:22:09.057Z,13.10
2023-05-04T18:24:36.146Z,13.10
2023-05-04T18:27:03.703Z,12.90
2023-05-04T18:29:32.267Z,13.00
2023-05-04T18:32:01.463Z,12.90
2023-05-04T18:34:28.729Z,12.70
2023-05-04T18:36:55.931Z,12.50
2023-05-04T18:39:23.236Z,12.20
2023-05-04T18:41:50.704Z,12.20
2023-05-04T18:44:18.056Z,12.30
2023-05-04T18:46:46.152Z,12.30
2023-05-04T18:49:13.789Z,12.40
2023-05-04T18:51:41.898Z,12.40
2023-05-04T18:54:09.536Z,12.40
2023-05-04T18:56:36.651Z,12.10
2023-05-04T18:59:06.192Z,12.00
2023-05-04T19:01:33.659Z,11.90
2023-05-04T19:04:01.427Z,12.00
2023-05-04T19:06:28.706Z,12.00
2023-05-04T19:08:55.928Z,12.00
2023-05-04T19:11:23.029Z,12.10
2023-05-04T19:13:50.264Z,12.10
2023-05-04T19:16:17.617Z,12.20
2023-05-04T19:18:45.826Z,12.10
2023-05-04T19:21:12.998Z,12.00
2023-05-04T19:23:40.233Z,12.00
2023-05-04T19:26:07.373Z,12.00
2023-05-04T19:28:34.646Z,11.90
2023-05-04T19:31:01.895Z,11.70
2023-05-04T19:33:40.445Z,11.60
2023-05-04T19:36:12.425Z,11.60
2023-05-04T19:38:39.712Z,11.50
2023-05-04T19:41:06.925Z,11.50
2023-05-04T19:43:34.002Z,11.30
2023-05-04T19:46:02.822Z,11.30
2023-05-04T19:48:29.936Z,11.10
2023-05-04T19:50:57.211Z,11.00
2023-05-04T19:53:24.464Z,11.10
2023-05-04T19:55:51.952Z,10.90
2023-05-04T19:58:19.238Z,10.90
2023-05-04T20:00:46.579Z,11.00
2023-05-04T20:03:13.849Z,11.10
2023-05-04T20:05:41.030Z,11.10
2023-05-04T20:08:08.422Z,11.20
2023-05-04T20:10:35.557Z,11.10
2023-05-04T20:13:03.420Z,10.80
2023-05-04T20:15:30.768Z,10.90
2023-05-04T20:17:58.008Z,11.00
2023-05-04T20:20:25.277Z,11.10
2023-05-04T20:22:52.904Z,11.10
2023-05-04T20:25:20.191Z,11.20
2023-05-04T20:27:49.178Z,11.10
2023-05-04T20:30:16.391Z,10.80
2023-05-04T20:32:44.316Z,10.70
2023-05-04T20:35:11.935Z,10.80
2023-05-04T20:37:39.212Z,10.70
2023-05-04T20:40:08.235Z,10.80
2023-05-04T20:42:36.123Z,11.00
2023-05-04T20:45:03.442Z,10.90
2023-05-04T20:47:34.293Z,10.90
2023-05-04T20:50:01.582Z,11.00
2023-05-04T20:52:32.210Z,11.00
2023-05-04T20:54:59.575Z,11.00
2023-05-04T20:57:27.033Z,11.00
2023-05-04T20:59:54.679Z,11.00
2023-05-04T21:02:22.160Z,11.10
2023-05-04T21:04:49.681Z,11.10
2023-05-04T21:07:16.832Z,11.30
2023-05-04T21:09:44.230Z,11.20
2023-05-04T21:12:11.560Z,11.30
2023-05-04T21:14:38.761Z,11.20
2023-05-04T21:17:07.164Z,11.00
2023-05-04T21:19:34.804Z,11.00
2023-05-04T21:22:01.944Z,10.90
2023-05-04T21:24:30.010Z,11.00
2023-05-04T21:26:57.773Z,11.00
2023-05-04T21:29:25.097Z,11.00
2023-05-04T21:31:52.486Z,11.00
2023-05-04T21:34:19.852Z,10.90
2023-05-04T21:36:47.026Z,10.50
2023-05-04T21:39:14.736Z,10.60
2023-05-04T21:41:41.939Z,10.60
2023-05-04T21:44:09.155Z,10.60
2023-05-04T21:46:36.472Z,10.30
2023-05-04T21:49:04.048Z,10.10
2023-05-04T21:51:31.833Z,10.20
2023-05-04T21:53:59.115Z,10.40
2023-05-04T21:56:26.284Z,10.30
2023-05-04T21:58:53.348Z,10.30
2023-05-04T22:01:20.699Z,10.30
2023-05-04T22:03:47.916Z,10.40
2023-05-04T22:06:15.068Z,10.40
2023-05-04T22:08:42.146Z,10.40
2023-05-04T22:11:09.359Z,10.00
2023-05-04T22:13:36.618Z,10.20
2023-05-04T22:16:03.893Z,9.90
2023-05-04T22:18:31.227Z,10.00
2023-05-04T22:20:58.792Z,10.20
2023-05-04T22:23:26.599Z,10.40
2023-05-04T22:25:53.734Z,10.10
2023-05-04T22:28:20.934Z,10.30
2023-05-04T22:30:48.103Z,10.50
2023-05-04T22:33:15.269Z,10.30
2023-05-04T22:35:42.248Z,10.30
2023-05-04T22:38:09.570Z,10.10
2023-05-04T22:40:40.182Z,9.90
2023-05-04T22:43:07.626Z,9.80
2023-05-04T22:45:39.004Z,9.80
2023-05-04T22:48:06.332Z,9.80
2023-05-04T22:50:33.341Z,9.80
2023-05-04T22:53:01.470Z,9.90
2023-05-04T22:55:28.541Z,10.00
2023-05-04T22:57:55.506Z,9.90
2023-05-04T23:00:23.136Z,9.80
2023-05-04T23:02:50.391Z,9.60
2023-05-04T23:05:17.546Z,9.80
2023-05-04T23:07:44.563Z,9.70
2023-05-04T23:10:11.569Z,9.70
2023-05-04T23:12:38.726Z,9.70
2023-05-04T23:15:07.436Z,9.70
2023-05-04T23:17:38.252Z,9.60
2023-05-04T23:20:13.414Z,9.70
2023-05-04T23:22:40.596Z,9.80
2023-05-04T23:25:08.370Z,9.80
2023-05-04T23:27:35.349Z,9.70
2023-05-04T23:30:02.463Z,9.60
2023-05-04T23:32:30.902Z,9.90
2023-05-04T23:34:58.012Z,10.00
2023-05-04T23:37:25.050Z,9.80
2023-05-04T23:39:52.176Z,9.60
2023-05-04T23:42:19.444Z,9.50
2023-05-04T23:44:46.402Z,9.70
2023-05-04T23:47:13.421Z,9.60
2023-05-04T23:49:40.389Z,9.70
2023-05-04T23:52:07.431Z,9.90
2023-05-04T23:54:34.440Z,9.70
2023-05-04T23:57:01.487Z,9.50
2023-05-04T23:59:28.576Z,9.50
